createdAt,value
2023-09-08T00:00:34.342Z,83.10
2023-09-08T00:01:34.366Z,83.20
2023-09-08T00:02:34.433Z,83.10
2023-09-08T00:03:34.344Z,83.20
2023-09-08T00:04:40.307Z,83.40
2023-09-08T00:05:34.262Z,83.30
2023-09-08T00:06:34.270Z,83.30
2023-09-08T00:07:36.835Z,83.60
2023-09-08T00:08:34.520Z,83.91
2023-09-08T00:09:34.193Z,83.95
2023-09-08T00:10:34.191Z,83.84
2023-09-08T00:11:34.187Z,84.15
2023-09-08T00:12:34.155Z,83.95
2023-09-08T00:13:34.202Z,84.35
2023-09-08T00:14:34.135Z,84.35
2023-09-08T00:15:34.148Z,84.05
2023-09-08T00:16:34.256Z,84.45
2023-09-08T00:17:34.148Z,84.59
2023-09-08T00:18:40.077Z,84.79
2023-09-08T00:19:34.128Z,84.99
2023-09-08T00:20:34.086Z,84.79
2023-09-08T00:21:34.039Z,85.40
2023-09-08T00:22:34.080Z,85.19
2023-09-08T00:23:34.058Z,84.79
2023-09-08T00:24:34.026Z,85.10
2023-09-08T00:25:34.000Z,84.99
2023-09-08T00:26:34.008Z,85.10
2023-09-08T00:27:33.989Z,84.89
2023-09-08T00:28:34.183Z,84.99
2023-09-08T00:29:34.009Z,84.99
2023-09-08T00:30:33.910Z,85.10
2023-09-08T00:31:33.940Z,85.30
2023-09-08T00:32:34.051Z,85.10
2023-09-08T00:33:33.954Z,84.99
2023-09-08T00:34:33.867Z,85.19
2023-09-08T00:35:33.878Z,84.79
2023-09-08T00:36:33.836Z,85.10
2023-09-08T00:37:33.874Z,85.10
2023-09-08T00:38:34.247Z,84.99
2023-09-08T00:39:33.827Z,84.89
2023-09-08T00:40:33.800Z,85.10
2023-09-08T00:41:33.847Z,85.19
2023-09-08T00:42:33.761Z,84.99
2023-09-08T00:43:33.763Z,85.10
2023-09-08T00:44:33.756Z,85.44
2023-09-08T00:45:33.787Z,85.34
2023-09-08T00:46:33.794Z,85.54
2023-09-08T00:47:33.736Z,85.54
2023-09-08T00:48:34.030Z,85.54
2023-09-08T00:49:33.693Z,85.24
2023-09-08T00:50:33.681Z,85.54
2023-09-08T00:51:33.671Z,85.34
2023-09-08T00:52:33.670Z,85.14
2023-09-08T00:53:33.635Z,85.10
2023-09-08T00:54:33.605Z,85.19
2023-09-08T00:55:33.595Z,85.24
2023-09-08T00:56:33.669Z,85.14
2023-09-08T00:57:33.574Z,85.10
2023-09-08T00:58:33.847Z,84.73
2023-09-08T00:59:33.553Z,85.14
2023-09-08T01:00:33.548Z,85.44
2023-09-08T01:01:33.629Z,85.54
2023-09-08T01:02:33.603Z,85.44
2023-09-08T01:03:33.554Z,85.24
2023-09-08T01:04:33.565Z,85.34
2023-09-08T01:05:33.614Z,85.24
2023-09-08T01:06:33.476Z,85.24
2023-09-08T01:07:33.456Z,85.14
2023-09-08T01:08:33.761Z,85.24
2023-09-08T01:09:33.522Z,84.93
2023-09-08T01:10:33.413Z,85.14
2023-09-08T01:11:33.420Z,85.03
2023-09-08T01:12:33.386Z,85.34
2023-09-08T01:13:33.385Z,85.03
2023-09-08T01:14:33.361Z,85.24
2023-09-08T01:15:33.374Z,85.14
2023-09-08T01:16:33.357Z,85.54
2023-09-08T01:17:33.323Z,85.54
2023-09-08T01:18:33.673Z,85.44
2023-09-08T01:19:33.316Z,85.64
2023-09-08T01:20:33.277Z,85.44
2023-09-08T01:21:33.330Z,85.34
2023-09-08T01:22:33.259Z,85.44
2023-09-08T01:23:33.259Z,85.34
2023-09-08T01:24:33.251Z,85.14
2023-09-08T01:25:33.220Z,85.24
2023-09-08T01:26:33.199Z,85.34
2023-09-08T01:27:33.208Z,85.44
2023-09-08T01:28:33.468Z,85.54
2023-09-08T01:29:33.156Z,85.48
2023-09-08T01:30:33.167Z,85.68
2023-09-08T01:31:33.172Z,85.88
2023-09-08T01:32:33.124Z,85.78
2023-09-08T01:33:33.125Z,85.68
2023-09-08T01:34:33.123Z,85.88
2023-09-08T01:35:33.097Z,85.78
2023-09-08T01:36:33.092Z,85.68
2023-09-08T01:37:33.082Z,85.78
2023-09-08T01:38:33.469Z,85.58
2023-09-08T01:39:33.042Z,85.88
2023-09-08T01:40:33.031Z,85.88
2023-09-08T01:41:33.027Z,85.88
2023-09-08T01:42:32.992Z,86.19
2023-09-08T01:43:32.995Z,86.43
2023-09-08T01:44:33.031Z,86.49
2023-09-08T01:45:33.071Z,86.29
2023-09-08T01:46:32.977Z,86.29
2023-09-08T01:47:32.934Z,86.08
2023-09-08T01:48:33.168Z,86.49
2023-09-08T01:49:32.893Z,86.39
2023-09-08T01:50:32.910Z,86.29
2023-09-08T01:51:32.896Z,85.99
2023-09-08T01:52:32.859Z,86.29
2023-09-08T01:53:32.886Z,86.19
2023-09-08T01:54:32.875Z,86.08
2023-09-08T01:55:32.820Z,86.08
2023-09-08T01:56:32.839Z,86.08
2023-09-08T01:57:32.818Z,86.22
2023-09-08T01:58:33.092Z,86.02
2023-09-08T01:59:32.783Z,86.43
2023-09-08T02:00:32.849Z,86.43
2023-09-08T02:01:32.820Z,86.13
2023-09-08T02:02:32.767Z,86.53
2023-09-08T02:03:32.720Z,86.33
2023-09-08T02:04:32.794Z,86.33
2023-09-08T02:05:32.766Z,86.43
2023-09-08T02:06:32.671Z,86.33
2023-09-08T02:07:32.714Z,86.49
2023-09-08T02:08:33.148Z,86.49
2023-09-08T02:09:32.687Z,86.59
2023-09-08T02:10:32.639Z,86.49
2023-09-08T02:11:32.638Z,86.49
2023-09-08T02:12:32.617Z,86.49
2023-09-08T02:13:32.588Z,86.29
2023-09-08T02:14:32.584Z,86.29
2023-09-08T02:15:32.681Z,86.39
2023-09-08T02:16:32.589Z,86.29
2023-09-08T02:17:32.538Z,86.08
2023-09-08T02:18:32.750Z,86.39
2023-09-08T02:19:32.636Z,86.39
2023-09-08T02:20:32.490Z,85.99
2023-09-08T02:21:32.592Z,85.88
2023-09-08T02:22:32.466Z,86.29
2023-09-08T02:23:32.473Z,86.49
2023-09-08T02:24:32.494Z,86.59
2023-09-08T02:25:32.461Z,86.39
2023-09-08T02:26:32.413Z,86.49
2023-09-08T02:27:32.411Z,86.49
2023-09-08T02:28:32.650Z,86.59
2023-09-08T02:29:32.377Z,86.49
2023-09-08T02:30:32.453Z,86.39
2023-09-08T02:31:32.372Z,86.08
2023-09-08T02:32:32.375Z,86.19
2023-09-08T02:33:32.449Z,86.39
2023-09-08T02:34:32.314Z,86.39
2023-09-08T02:35:32.306Z,86.19
2023-09-08T02:36:32.322Z,86.19
2023-09-08T02:37:32.318Z,86.39
2023-09-08T02:38:32.385Z,86.13
2023-09-08T02:39:32.295Z,86.83
2023-09-08T02:40:32.241Z,86.63
2023-09-08T02:41:32.224Z,86.59
2023-09-08T02:42:32.243Z,86.49
2023-09-08T02:43:32.208Z,86.29
2023-09-08T02:44:32.194Z,86.08
2023-09-08T02:45:33.729Z,85.78
2023-09-08T02:46:32.181Z,85.38
2023-09-08T02:47:32.161Z,85.68
2023-09-08T02:48:32.219Z,86.02
2023-09-08T02:49:32.159Z,85.82
2023-09-08T02:50:32.106Z,86.43
2023-09-08T02:51:32.177Z,86.22
2023-09-08T02:52:32.091Z,86.63
2023-09-08T02:53:32.083Z,86.93
2023-09-08T02:54:32.088Z,86.98
2023-09-08T02:55:32.073Z,87.38
2023-09-08T02:56:32.025Z,87.48
2023-09-08T02:57:32.017Z,87.48
2023-09-08T02:58:32.111Z,87.58
2023-09-08T02:59:32.013Z,87.48
2023-09-08T03:00:32.145Z,87.38
2023-09-08T03:01:38.351Z,87.48
2023-09-08T03:02:32.171Z,87.79
2023-09-08T03:03:32.089Z,87.58
2023-09-08T03:04:31.982Z,87.79
2023-09-08T03:05:38.224Z,87.79
2023-09-08T03:06:31.922Z,88.13
2023-09-08T03:07:31.931Z,88.19
2023-09-08T03:08:31.868Z,88.23
2023-09-08T03:09:31.905Z,88.33
2023-09-08T03:10:31.863Z,88.64
2023-09-08T03:11:31.853Z,88.33
2023-09-08T03:12:31.848Z,88.33
2023-09-08T03:13:31.865Z,88.53
2023-09-08T03:14:31.820Z,88.43
2023-09-08T03:15:31.786Z,88.53
2023-09-08T03:16:31.919Z,88.84
2023-09-08T03:17:31.802Z,88.53
2023-09-08T03:18:31.780Z,88.74
2023-09-08T03:19:31.768Z,89.04
2023-09-08T03:20:31.736Z,88.74
2023-09-08T03:21:31.712Z,89.14
2023-09-08T03:22:37.776Z,88.84
2023-09-08T03:23:31.832Z,89.34
2023-09-08T03:24:31.692Z,88.94
2023-09-08T03:25:31.656Z,88.84
2023-09-08T03:26:31.682Z,89.24
2023-09-08T03:27:31.646Z,89.14
2023-09-08T03:28:31.650Z,89.24
2023-09-08T03:29:31.606Z,89.24
2023-09-08T03:30:31.602Z,89.14
2023-09-08T03:31:31.654Z,89.04
2023-09-08T03:32:31.701Z,89.14
2023-09-08T03:33:31.734Z,89.14
2023-09-08T03:34:31.705Z,89.04
2023-09-08T03:35:31.530Z,88.74
2023-09-08T03:36:31.555Z,89.14
2023-09-08T03:37:31.528Z,88.84
2023-09-08T03:38:31.498Z,89.14
2023-09-08T03:39:31.496Z,89.04
2023-09-08T03:40:31.486Z,89.24
2023-09-08T03:41:31.478Z,89.14
2023-09-08T03:42:31.434Z,89.45
2023-09-08T03:43:31.418Z,89.45
2023-09-08T03:44:31.431Z,89.24
2023-09-08T03:45:31.459Z,89.45
2023-09-08T03:46:31.567Z,89.24
2023-09-08T03:47:31.502Z,89.24
2023-09-08T03:48:31.351Z,89.04
2023-09-08T03:49:31.388Z,89.34
2023-09-08T03:50:31.341Z,89.45
2023-09-08T03:51:31.349Z,89.24
2023-09-08T03:52:31.323Z,89.34
2023-09-08T03:53:31.335Z,89.54
2023-09-08T03:54:31.297Z,89.65
2023-09-08T03:55:31.272Z,89.65
2023-09-08T03:56:31.316Z,89.54
2023-09-08T03:57:31.236Z,89.45
2023-09-08T03:58:31.245Z,89.65
2023-09-08T03:59:31.219Z,89.34
2023-09-08T04:00:31.243Z,89.65
2023-09-08T04:01:31.237Z,89.85
2023-09-08T04:02:31.227Z,89.54
2023-09-08T04:03:31.247Z,89.34
2023-09-08T04:04:31.179Z,89.54
2023-09-08T04:05:31.263Z,89.34
2023-09-08T04:06:31.183Z,89.54
2023-09-08T04:07:31.161Z,89.24
2023-09-08T04:08:31.135Z,89.54
2023-09-08T04:09:31.093Z,89.34
2023-09-08T04:10:31.064Z,89.14
2023-09-08T04:11:31.075Z,89.24
2023-09-08T04:12:31.045Z,89.34
2023-09-08T04:13:31.046Z,89.65
2023-09-08T04:14:31.031Z,89.34
2023-09-08T04:15:31.017Z,89.34
2023-09-08T04:16:30.994Z,89.34
2023-09-08T04:17:31.005Z,89.45
2023-09-08T04:18:31.140Z,89.24
2023-09-08T04:19:30.952Z,89.54
2023-09-08T04:20:30.950Z,89.95
2023-09-08T04:21:30.943Z,89.65
2023-09-08T04:22:30.908Z,89.65
2023-09-08T04:23:30.916Z,89.54
2023-09-08T04:24:30.902Z,89.34
2023-09-08T04:25:30.873Z,89.45
2023-09-08T04:26:30.854Z,89.54
2023-09-08T04:27:30.845Z,89.65
2023-09-08T04:28:30.837Z,89.65
2023-09-08T04:29:30.849Z,89.54
2023-09-08T04:30:30.848Z,89.34
2023-09-08T04:31:30.891Z,89.75
2023-09-08T04:32:30.791Z,89.45
2023-09-08T04:33:30.919Z,89.75
2023-09-08T04:34:30.768Z,89.45
2023-09-08T04:35:30.759Z,89.54
2023-09-08T04:36:30.727Z,89.75
2023-09-08T04:37:30.734Z,89.65
2023-09-08T04:38:30.736Z,89.65
2023-09-08T04:39:30.699Z,89.54
2023-09-08T04:40:30.691Z,89.85
2023-09-08T04:41:30.686Z,89.24
2023-09-08T04:42:30.728Z,89.95
2023-09-08T04:43:30.658Z,89.95
2023-09-08T04:44:30.631Z,89.95
2023-09-08T04:45:30.679Z,89.24
2023-09-08T04:46:30.667Z,89.69
2023-09-08T04:47:30.597Z,90.09
2023-09-08T04:48:31.282Z,90.09
2023-09-08T04:49:30.598Z,89.69
2023-09-08T04:50:30.572Z,89.69
2023-09-08T04:51:30.559Z,90.09
2023-09-08T04:52:30.523Z,89.89
2023-09-08T04:53:30.543Z,89.59
2023-09-08T04:54:30.492Z,90.50
2023-09-08T04:55:30.509Z,89.79
2023-09-08T04:56:30.534Z,90.30
2023-09-08T04:57:30.478Z,90.50
2023-09-08T04:58:30.454Z,90.80
2023-09-08T04:59:30.506Z,90.60
2023-09-08T05:00:30.436Z,89.69
2023-09-08T05:01:30.446Z,90.20
2023-09-08T05:02:30.456Z,89.99
2023-09-08T05:03:30.488Z,90.05
2023-09-08T05:04:30.404Z,89.95
2023-09-08T05:05:30.402Z,90.25
2023-09-08T05:06:30.391Z,90.16
2023-09-08T05:07:30.355Z,89.45
2023-09-08T05:08:30.368Z,89.65
2023-09-08T05:09:30.303Z,89.30
2023-09-08T05:10:30.317Z,89.10
2023-09-08T05:11:30.378Z,89.00
2023-09-08T05:12:30.264Z,89.20
2023-09-08T05:13:31.947Z,88.59
2023-09-08T05:14:30.247Z,88.19
2023-09-08T05:15:30.334Z,88.35
2023-09-08T05:16:30.230Z,88.04
2023-09-08T05:17:30.216Z,87.95
2023-09-08T05:18:30.209Z,87.84
2023-09-08T05:19:30.176Z,87.95
2023-09-08T05:20:30.193Z,87.34
2023-09-08T05:21:30.190Z,87.44
2023-09-08T05:22:30.158Z,87.13
2023-09-08T05:23:30.134Z,87.34
2023-09-08T05:24:30.119Z,87.44
2023-09-08T05:25:30.132Z,87.54
2023-09-08T05:26:30.098Z,87.34
2023-09-08T05:27:30.123Z,87.30
2023-09-08T05:28:30.091Z,87.30
2023-09-08T05:29:30.049Z,86.99
2023-09-08T05:30:30.038Z,86.69
2023-09-08T05:31:30.054Z,86.69
2023-09-08T05:32:30.069Z,86.69
2023-09-08T05:33:30.024Z,86.69
2023-09-08T05:34:30.007Z,86.29
2023-09-08T05:35:29.982Z,86.04
2023-09-08T05:36:30.011Z,85.94
2023-09-08T05:37:29.950Z,85.44
2023-09-08T05:38:29.999Z,85.64
2023-09-08T05:39:29.925Z,85.44
2023-09-08T05:40:29.946Z,85.64
2023-09-08T05:41:29.910Z,85.40
2023-09-08T05:42:29.889Z,84.99
2023-09-08T05:43:30.030Z,85.19
2023-09-08T05:44:29.869Z,84.99
2023-09-08T05:45:29.849Z,85.40
2023-09-08T05:46:29.916Z,85.10
2023-09-08T05:47:29.890Z,85.19
2023-09-08T05:48:29.834Z,85.10
2023-09-08T05:49:29.882Z,84.95
2023-09-08T05:50:29.793Z,84.85
2023-09-08T05:51:29.784Z,84.15
2023-09-08T05:52:29.880Z,83.74
2023-09-08T05:53:29.801Z,83.95
2023-09-08T05:54:29.742Z,84.05
2023-09-08T05:55:29.702Z,83.91
2023-09-08T05:56:29.711Z,83.30
2023-09-08T05:57:29.688Z,83.30
2023-09-08T05:58:29.684Z,83.50
2023-09-08T05:59:29.675Z,83.40
2023-09-08T06:00:29.658Z,83.40
2023-09-08T06:01:29.767Z,83.80
2023-09-08T06:02:29.801Z,83.30
2023-09-08T06:03:29.845Z,83.20
2023-09-08T06:04:29.752Z,83.26
2023-09-08T06:05:29.610Z,83.16
2023-09-08T06:06:29.743Z,83.16
2023-09-08T06:07:29.563Z,82.96
2023-09-08T06:08:29.622Z,83.06
2023-09-08T06:09:29.549Z,83.06
2023-09-08T06:10:29.514Z,82.96
2023-09-08T06:11:29.499Z,83.36
2023-09-08T06:12:29.568Z,82.96
2023-09-08T06:13:29.478Z,83.06
2023-09-08T06:14:29.487Z,82.76
2023-09-08T06:15:29.577Z,82.62
2023-09-08T06:16:29.547Z,81.91
2023-09-08T06:17:29.457Z,82.01
2023-09-08T06:18:29.442Z,82.01
2023-09-08T06:19:29.404Z,81.91
2023-09-08T06:20:29.431Z,81.71
2023-09-08T06:21:29.388Z,81.57
2023-09-08T06:22:29.385Z,81.67
2023-09-08T06:23:29.351Z,81.47
2023-09-08T06:24:29.344Z,81.57
2023-09-08T06:25:29.330Z,81.17
2023-09-08T06:26:29.421Z,81.47
2023-09-08T06:27:29.299Z,80.73
2023-09-08T06:28:29.327Z,80.83
2023-09-08T06:29:29.277Z,81.03
2023-09-08T06:30:29.272Z,80.73
2023-09-08T06:31:29.261Z,80.32
2023-09-08T06:32:29.289Z,80.32
2023-09-08T06:33:29.315Z,80.29
2023-09-08T06:34:29.351Z,79.88
2023-09-08T06:35:29.180Z,79.99
2023-09-08T06:36:29.224Z,79.99
2023-09-08T06:37:29.218Z,80.08
2023-09-08T06:38:29.158Z,80.08
2023-09-08T06:39:29.219Z,79.99
2023-09-08T06:40:29.137Z,79.64
2023-09-08T06:41:29.109Z,79.54
2023-09-08T06:42:29.128Z,79.04
2023-09-08T06:43:29.098Z,78.94
2023-09-08T06:44:29.067Z,78.74
2023-09-08T06:45:29.070Z,79.04
2023-09-08T06:46:29.081Z,79.14
2023-09-08T06:47:29.105Z,78.70
2023-09-08T06:48:29.082Z,78.70
2023-09-08T06:49:29.019Z,78.50
2023-09-08T06:50:29.048Z,78.30
2023-09-08T06:51:29.008Z,78.30
2023-09-08T06:52:28.988Z,78.20
2023-09-08T06:53:28.973Z,77.66
2023-09-08T06:54:28.974Z,77.86
2023-09-08T06:55:28.951Z,77.86
2023-09-08T06:56:28.945Z,77.96
2023-09-08T06:57:28.996Z,77.86
2023-09-08T06:58:28.892Z,77.76
2023-09-08T06:59:28.892Z,77.26
2023-09-08T07:00:28.874Z,77.26
2023-09-08T07:01:28.956Z,77.32
2023-09-08T07:02:28.894Z,77.22
2023-09-08T07:03:29.016Z,77.22
2023-09-08T07:04:28.849Z,76.42
2023-09-08T07:05:28.830Z,76.62
2023-09-08T07:06:28.828Z,76.18
2023-09-08T07:07:28.771Z,75.88
2023-09-08T07:08:28.780Z,75.88
2023-09-08T07:09:28.741Z,75.68
2023-09-08T07:10:28.755Z,75.64
2023-09-08T07:11:28.718Z,75.45
2023-09-08T07:12:28.719Z,74.94
2023-09-08T07:13:28.752Z,75.14
2023-09-08T07:14:28.697Z,75.64
2023-09-08T07:15:28.676Z,75.45
2023-09-08T07:16:28.757Z,74.84
2023-09-08T07:17:28.776Z,74.71
2023-09-08T07:18:28.658Z,74.60
2023-09-08T07:19:28.708Z,74.51
2023-09-08T07:20:28.622Z,74.10
2023-09-08T07:21:28.695Z,73.57
2023-09-08T07:22:28.689Z,73.67
2023-09-08T07:23:28.582Z,73.57
2023-09-08T07:24:28.563Z,73.67
2023-09-08T07:25:28.651Z,73.97
2023-09-08T07:26:28.543Z,73.16
2023-09-08T07:27:28.528Z,72.63
2023-09-08T07:28:28.510Z,72.83
2023-09-08T07:29:28.503Z,72.53
2023-09-08T07:30:28.537Z,72.63
2023-09-08T07:31:28.483Z,72.73
2023-09-08T07:32:28.509Z,72.93
2023-09-08T07:33:28.516Z,72.60
2023-09-08T07:34:28.441Z,72.89
2023-09-08T07:35:28.425Z,72.69
2023-09-08T07:36:28.446Z,72.60
2023-09-08T07:37:28.403Z,72.39
2023-09-08T07:38:28.448Z,72.69
2023-09-08T07:39:28.370Z,72.36
2023-09-08T07:40:28.363Z,72.16
2023-09-08T07:41:28.328Z,71.96
2023-09-08T07:42:28.352Z,71.56
2023-09-08T07:43:28.425Z,71.56
2023-09-08T07:44:28.413Z,71.86
2023-09-08T07:45:28.309Z,71.83
2023-09-08T07:46:28.308Z,70.92
2023-09-08T07:47:29.623Z,70.32
2023-09-08T07:48:28.386Z,70.32
2023-09-08T07:49:28.392Z,70.23
2023-09-08T07:50:28.214Z,70.09
2023-09-08T07:51:28.237Z,69.49
2023-09-08T07:52:28.195Z,69.99
2023-09-08T07:53:28.213Z,69.79
2023-09-08T07:54:28.182Z,69.39
2023-09-08T07:55:28.226Z,68.59
2023-09-08T07:56:28.219Z,68.86
2023-09-08T07:57:28.132Z,68.86
2023-09-08T07:58:28.130Z,68.86
2023-09-08T07:59:28.104Z,68.16
2023-09-08T08:00:28.097Z,68.33
2023-09-08T08:01:28.083Z,68.13
2023-09-08T08:02:28.149Z,67.63
2023-09-08T08:03:28.110Z,66.53
2023-09-08T08:04:28.122Z,67.13
2023-09-08T08:05:28.172Z,68.29
2023-09-08T08:06:28.032Z,66.80
2023-09-08T08:07:27.999Z,67.10
2023-09-08T08:08:28.084Z,67.49
2023-09-08T08:09:27.979Z,67.19
2023-09-08T08:10:27.977Z,66.06
2023-09-08T08:11:27.972Z,65.37
2023-09-08T08:12:27.951Z,65.07
2023-09-08T08:13:27.939Z,65.47
2023-09-08T08:14:27.925Z,64.77
2023-09-08T08:15:27.954Z,63.87
2023-09-08T08:16:27.972Z,64.64
2023-09-08T08:17:27.923Z,64.74
2023-09-08T08:18:27.939Z,64.64
2023-09-08T08:19:27.841Z,64.64
2023-09-08T08:20:27.886Z,64.64
2023-09-08T08:21:27.876Z,63.84
2023-09-08T08:22:27.840Z,64.51
2023-09-08T08:23:27.812Z,63.61
2023-09-08T08:24:27.829Z,63.91
2023-09-08T08:25:27.771Z,64.11
2023-09-08T08:26:27.783Z,62.91
2023-09-08T08:27:27.800Z,63.68
2023-09-08T08:28:27.741Z,62.78
2023-09-08T08:29:27.762Z,63.38
2023-09-08T08:30:27.750Z,62.29
2023-09-08T08:31:27.822Z,63.18
2023-09-08T08:32:27.753Z,62.78
2023-09-08T08:33:27.752Z,62.48
2023-09-08T08:34:27.670Z,62.65
2023-09-08T08:35:27.679Z,63.15
2023-09-08T08:36:27.684Z,63.45
2023-09-08T08:37:27.633Z,63.15
2023-09-08T08:38:27.651Z,62.95
2023-09-08T08:39:27.594Z,63.45
2023-09-08T08:40:27.601Z,62.92
2023-09-08T08:41:27.673Z,62.23
2023-09-08T08:42:27.545Z,62.52
2023-09-08T08:43:27.601Z,62.32
2023-09-08T08:44:27.563Z,61.72
2023-09-08T08:45:27.529Z,62.02
2023-09-08T08:46:27.524Z,61.10
2023-09-08T08:47:27.600Z,60.80
2023-09-08T08:48:27.468Z,61.40
2023-09-08T08:49:27.463Z,61.80
2023-09-08T08:50:28.175Z,61.00
2023-09-08T08:51:27.505Z,61.20
2023-09-08T08:52:27.430Z,60.30
2023-09-08T08:53:27.427Z,60.30
2023-09-08T08:54:27.475Z,61.17
2023-09-08T08:55:27.401Z,60.17
2023-09-08T08:56:27.387Z,60.27
2023-09-08T08:57:27.437Z,60.47
2023-09-08T08:58:27.344Z,59.58
2023-09-08T08:59:27.348Z,60.38
2023-09-08T09:00:27.350Z,61.17
2023-09-08T09:01:27.380Z,59.45
2023-09-08T09:02:27.311Z,59.85
2023-09-08T09:03:27.308Z,60.14
2023-09-08T09:04:27.337Z,60.05
2023-09-08T09:05:27.310Z,58.86
2023-09-08T09:06:27.273Z,58.95
2023-09-08T09:07:27.289Z,58.36
2023-09-08T09:08:27.219Z,58.43
2023-09-08T09:09:27.240Z,58.13
2023-09-08T09:10:27.220Z,57.83
2023-09-08T09:11:27.276Z,58.03
2023-09-08T09:12:27.187Z,58.92
2023-09-08T09:13:27.162Z,58.53
2023-09-08T09:14:27.165Z,57.64
2023-09-08T09:15:27.131Z,58.60
2023-09-08T09:16:27.162Z,58.30
2023-09-08T09:17:27.132Z,58.60
2023-09-08T09:18:27.158Z,58.70
2023-09-08T09:19:27.102Z,56.71
2023-09-08T09:20:27.077Z,57.31
2023-09-08T09:21:27.054Z,57.28
2023-09-08T09:22:27.071Z,58.17
2023-09-08T09:23:33.030Z,57.18
2023-09-08T09:24:27.090Z,57.38
2023-09-08T09:25:27.342Z,56.88
2023-09-08T09:26:27.014Z,55.89
2023-09-08T09:27:27.041Z,56.38
2023-09-08T09:28:26.974Z,55.79
2023-09-08T09:29:26.987Z,56.56
2023-09-08T09:30:26.971Z,55.47
2023-09-08T09:31:26.966Z,55.47
2023-09-08T09:32:26.922Z,55.07
2023-09-08T09:33:26.941Z,56.06
2023-09-08T09:34:26.915Z,55.96
2023-09-08T09:35:26.908Z,56.66
2023-09-08T09:36:26.860Z,55.87
2023-09-08T09:37:26.895Z,55.57
2023-09-08T09:38:26.869Z,55.96
2023-09-08T09:39:26.868Z,55.44
2023-09-08T09:40:26.830Z,56.04
2023-09-08T09:41:26.827Z,55.83
2023-09-08T09:42:26.810Z,54.64
2023-09-08T09:43:26.838Z,54.85
2023-09-08T09:44:26.861Z,54.22
2023-09-08T09:45:26.810Z,53.73
2023-09-08T09:46:26.768Z,53.92
2023-09-08T09:47:26.800Z,54.42
2023-09-08T09:48:26.778Z,55.11
2023-09-08T09:49:26.723Z,54.02
2023-09-08T09:50:26.703Z,54.32
2023-09-08T09:51:26.676Z,54.52
2023-09-08T09:52:26.689Z,53.63
2023-09-08T09:53:26.674Z,53.73
2023-09-08T09:54:26.666Z,53.53
2023-09-08T09:55:26.641Z,52.73
2023-09-08T09:56:26.607Z,53.03
2023-09-08T09:57:26.605Z,52.94
2023-09-08T09:58:26.625Z,53.03
2023-09-08T09:59:26.583Z,52.73
2023-09-08T10:00:26.638Z,53.92
2023-09-08T10:01:26.624Z,52.51
2023-09-08T10:02:26.601Z,52.91
2023-09-08T10:03:26.615Z,53.90
2023-09-08T10:04:26.505Z,51.92
2023-09-08T10:05:26.518Z,52.81
2023-09-08T10:06:26.580Z,53.80
2023-09-08T10:07:26.488Z,52.41
2023-09-08T10:08:26.464Z,52.41
2023-09-08T10:09:26.453Z,52.22
2023-09-08T10:10:26.422Z,52.31
2023-09-08T10:11:26.452Z,52.22
2023-09-08T10:12:26.441Z,52.88
2023-09-08T10:13:26.408Z,51.50
2023-09-08T10:14:26.379Z,52.49
2023-09-08T10:15:26.408Z,51.40
2023-09-08T10:16:26.403Z,51.89
2023-09-08T10:17:26.366Z,52.39
2023-09-08T10:18:26.468Z,52.78
2023-09-08T10:19:26.329Z,53.06
2023-09-08T10:20:26.325Z,52.26
2023-09-08T10:21:26.292Z,52.56
2023-09-08T10:22:26.266Z,51.77
2023-09-08T10:23:26.293Z,51.97
2023-09-08T10:24:26.334Z,52.83
2023-09-08T10:25:26.238Z,52.44
2023-09-08T10:26:26.224Z,51.75
2023-09-08T10:27:26.270Z,52.24
2023-09-08T10:28:26.225Z,50.76
2023-09-08T10:29:26.185Z,50.95
2023-09-08T10:30:26.266Z,50.16
2023-09-08T10:31:26.257Z,50.76
2023-09-08T10:32:26.260Z,50.66
2023-09-08T10:33:26.148Z,51.35
2023-09-08T10:34:26.142Z,50.83
2023-09-08T10:35:26.120Z,50.04
2023-09-08T10:36:26.199Z,50.34
2023-09-08T10:37:26.118Z,50.73
2023-09-08T10:38:26.094Z,50.93
2023-09-08T10:39:26.098Z,51.62
2023-09-08T10:40:26.072Z,50.83
2023-09-08T10:41:26.061Z,50.93
2023-09-08T10:42:26.105Z,49.84
2023-09-08T10:43:26.032Z,50.24
2023-09-08T10:44:26.049Z,51.13
2023-09-08T10:45:26.057Z,49.35
2023-09-08T10:46:26.002Z,50.13
2023-09-08T10:47:25.985Z,49.94
2023-09-08T10:48:26.115Z,49.42
2023-09-08T10:49:25.932Z,49.91
2023-09-08T10:50:25.922Z,49.82
2023-09-08T10:51:25.922Z,49.13
2023-09-08T10:52:25.979Z,50.21
2023-09-08T10:53:25.886Z,50.51
2023-09-08T10:54:25.900Z,50.71
2023-09-08T10:55:25.880Z,50.61
2023-09-08T10:56:25.866Z,50.68
2023-09-08T10:57:25.863Z,50.38
2023-09-08T10:58:28.020Z,50.29
2023-09-08T10:59:25.832Z,50.88
2023-09-08T11:00:25.810Z,51.18
2023-09-08T11:01:25.814Z,48.51
2023-09-08T11:02:25.795Z,50.19
2023-09-08T11:03:25.965Z,48.21
2023-09-08T11:04:25.895Z,47.81
2023-09-08T11:05:25.755Z,48.21
2023-09-08T11:06:25.742Z,48.21
2023-09-08T11:07:25.702Z,48.31
2023-09-08T11:08:27.211Z,47.62
2023-09-08T11:09:25.677Z,48.31
2023-09-08T11:10:25.685Z,48.11
2023-09-08T11:11:25.691Z,47.03
2023-09-08T11:12:25.654Z,48.31
2023-09-08T11:13:25.628Z,48.80
2023-09-08T11:14:25.621Z,49.89
2023-09-08T11:15:25.680Z,48.98
2023-09-08T11:16:25.677Z,47.89
2023-09-08T11:17:25.622Z,48.09
2023-09-08T11:18:25.692Z,48.78
2023-09-08T11:19:25.596Z,48.88
2023-09-08T11:20:25.598Z,49.48
2023-09-08T11:21:25.796Z,50.07
2023-09-08T11:22:25.516Z,50.26
2023-09-08T11:23:25.541Z,48.75
2023-09-08T11:24:25.533Z,48.27
2023-09-08T11:25:25.485Z,48.46
2023-09-08T11:26:25.496Z,47.28
2023-09-08T11:27:25.481Z,48.36
2023-09-08T11:28:25.486Z,48.27
2023-09-08T11:29:25.444Z,47.87
2023-09-08T11:30:25.404Z,47.87
2023-09-08T11:31:25.436Z,48.66
2023-09-08T11:32:25.426Z,46.98
2023-09-08T11:33:25.406Z,47.08
2023-09-08T11:34:25.366Z,48.36
2023-09-08T11:35:25.346Z,47.08
2023-09-08T11:36:25.344Z,47.57
2023-09-08T11:37:25.322Z,47.16
2023-09-08T11:38:25.320Z,46.56
2023-09-08T11:39:25.311Z,46.47
2023-09-08T11:40:25.278Z,46.17
2023-09-08T11:41:25.343Z,45.89
2023-09-08T11:42:25.250Z,46.19
2023-09-08T11:43:25.268Z,46.66
2023-09-08T11:44:25.406Z,46.56
2023-09-08T11:45:25.234Z,46.96
2023-09-08T11:46:25.313Z,47.55
2023-09-08T11:47:25.209Z,48.04
2023-09-08T11:48:25.206Z,48.34
2023-09-08T11:49:25.187Z,47.13
2023-09-08T11:50:25.189Z,47.63
2023-09-08T11:51:25.162Z,47.82
2023-09-08T11:52:25.274Z,47.13
2023-09-08T11:53:25.129Z,47.43
2023-09-08T11:54:25.103Z,46.15
2023-09-08T11:55:25.106Z,46.94
2023-09-08T11:56:25.095Z,47.72
2023-09-08T11:57:25.081Z,47.23
2023-09-08T11:58:25.091Z,46.44
2023-09-08T11:59:25.056Z,46.44
2023-09-08T12:00:25.048Z,45.93
2023-09-08T12:01:25.033Z,45.34
2023-09-08T12:02:25.057Z,46.42
2023-09-08T12:03:25.065Z,46.12
2023-09-08T12:04:25.060Z,46.22
2023-09-08T12:05:25.096Z,45.43
2023-09-08T12:06:24.970Z,45.31
2023-09-08T12:07:24.956Z,45.21
2023-09-08T12:08:24.940Z,45.51
2023-09-08T12:09:24.930Z,45.90
2023-09-08T12:10:24.935Z,45.02
2023-09-08T12:11:24.914Z,45.21
2023-09-08T12:12:24.893Z,44.43
2023-09-08T12:13:24.904Z,45.21
2023-09-08T12:14:24.857Z,44.53
2023-09-08T12:15:24.852Z,44.23
2023-09-08T12:16:24.945Z,43.84
2023-09-08T12:17:24.867Z,44.62
2023-09-08T12:18:24.812Z,44.43
2023-09-08T12:19:24.797Z,44.92
2023-09-08T12:20:24.791Z,45.02
2023-09-08T12:21:24.771Z,44.60
2023-09-08T12:22:24.763Z,44.90
2023-09-08T12:23:24.764Z,45.29
2023-09-08T12:24:24.798Z,43.13
2023-09-08T12:25:24.736Z,43.32
2023-09-08T12:26:24.737Z,43.91
2023-09-08T12:27:24.730Z,45.39
2023-09-08T12:28:24.749Z,44.40
2023-09-08T12:29:24.695Z,43.71
2023-09-08T12:30:24.665Z,43.82
2023-09-08T12:31:24.742Z,43.91
2023-09-08T12:32:24.619Z,44.31
2023-09-08T12:33:24.608Z,43.13
2023-09-08T12:34:24.630Z,42.04
2023-09-08T12:35:24.592Z,42.24
2023-09-08T12:36:24.583Z,42.41
2023-09-08T12:37:24.619Z,43.89
2023-09-08T12:38:24.578Z,42.41
2023-09-08T12:39:24.532Z,42.91
2023-09-08T12:40:24.575Z,43.20
2023-09-08T12:41:24.528Z,43.30
2023-09-08T12:42:24.520Z,42.30
2023-09-08T12:43:28.447Z,42.30
2023-09-08T12:44:24.516Z,42.69
2023-09-08T12:45:24.486Z,41.90
2023-09-08T12:46:24.494Z,42.30
2023-09-08T12:47:24.457Z,42.59
2023-09-08T12:48:24.440Z,41.80
2023-09-08T12:49:24.494Z,41.80
2023-09-08T12:50:24.393Z,42.10
2023-09-08T12:51:24.397Z,42.38
2023-09-08T12:52:24.400Z,41.88